sensor_id;sensor_type;location;lat;lon;timestamp;pressure;altitude;pressure_sealevel;temperature;humidity
54439;BME280;40347;53.848;27.498;2023-03-01T00:01:10;1017.1;;;2.8;70.9
54439;BME280;40347;53.848;27.498;2023-03-01T00:06:23;1016.9;;;2.6;71.6
54439;BME280;40347;53.848;27.498;2023-03-01T00:11:28;1017;;;2.5;71.5
54439;BME280;40347;53.848;27.498;2023-03-01T00:16:22;1016.9;;;2.5;72.2
54439;BME280;40347;53.848;27.498;2023-03-01T00:21:27;1016.9;;;2.5;72.5
54439;BME280;40347;53.848;27.498;2023-03-01T00:26:24;1016.9;;;2.6;72.2
54439;BME280;40347;53.848;27.498;2023-03-01T00:31:24;1016.9;;;2.7;72.2
54439;BME280;40347;53.848;27.498;2023-03-01T00:36:15;1016.9;;;2.6;71.5
54439;BME280;40347;53.848;27.498;2023-03-01T00:41:10;1016.8;;;2.6;71.9
54439;BME280;40347;53.848;27.498;2023-03-01T00:46:31;1016.7;;;2.7;72
54439;BME280;40347;53.848;27.498;2023-03-01T00:51:18;1016.7;;;2.9;72
54439;BME280;40347;53.848;27.498;2023-03-01T00:56:17;1016.6;;;2.9;71.9
54439;BME280;40347;53.848;27.498;2023-03-01T01:01:10;1016.6;;;2.8;71.8
54439;BME280;40347;53.848;27.498;2023-03-01T01:06:16;1016.4;;;2.9;71.9
54439;BME280;40347;53.848;27.498;2023-03-01T01:11:44;1016.3;;;3;71.7
54439;BME280;40347;53.848;27.498;2023-03-01T01:16:24;1016.3;;;3;71.7
54439;BME280;40347;53.848;27.498;2023-03-01T01:21:31;1016.3;;;3;71.5
54439;BME280;40347;53.848;27.498;2023-03-01T01:26:10;1016.2;;;3.1;71.5
54439;BME280;40347;53.848;27.498;2023-03-01T01:31:09;1016.2;;;3.2;71.3
54439;BME280;40347;53.848;27.498;2023-03-01T01:36:21;1016.2;;;3.3;71.2
54439;BME280;40347;53.848;27.498;2023-03-01T01:41:10;1016.3;;;3.3;71.2
54439;BME280;40347;53.848;27.498;2023-03-01T01:46:25;1016.2;;;3.3;71
54439;BME280;40347;53.848;27.498;2023-03-01T01:51:10;1016.2;;;3.4;70.7
54439;BME280;40347;53.848;27.498;2023-03-01T01:56:21;1016.2;;;3.4;70.5
54439;BME280;40347;53.848;27.498;2023-03-01T02:01:31;1016.2;;;3.6;70
54439;BME280;40347;53.848;27.498;2023-03-01T02:06:12;1016.2;;;3.9;69.5
54439;BME280;40347;53.848;27.498;2023-03-01T02:11:31;1016.3;;;4;69
54439;BME280;40347;53.848;27.498;2023-03-01T02:16:10;1016.2;;;4.1;68.4
54439;BME280;40347;53.848;27.498;2023-03-01T02:21:13;1016.2;;;4.1;68.3
54439;BME280;40347;53.848;27.498;2023-03-01T02:26:23;1016.2;;;4.1;68.3
54439;BME280;40347;53.848;27.498;2023-03-01T02:31:23;1016.1;;;4;68.3
54439;BME280;40347;53.848;27.498;2023-03-01T02:36:10;1016.1;;;4.1;68.2
54439;BME280;40347;53.848;27.498;2023-03-01T02:41:17;1016.1;;;4;67.8
54439;BME280;40347;53.848;27.498;2023-03-01T02:46:16;1016;;;4;67.6
54439;BME280;40347;53.848;27.498;2023-03-01T02:51:20;1016;;;4;67.7
54439;BME280;40347;53.848;27.498;2023-03-01T02:56:53;1016;;;4;67.5
54439;BME280;40347;53.848;27.498;2023-03-01T03:01:31;1015.9;;;4;67.5
54439;BME280;40347;53.848;27.498;2023-03-01T03:06:09;1015.9;;;3.9;67.3
54439;BME280;40347;53.848;27.498;2023-03-01T03:11:27;1015.9;;;4;67.2
54439;BME280;40347;53.848;27.498;2023-03-01T03:16:15;1016;;;4;67.1
54439;BME280;40347;53.848;27.498;2023-03-01T03:21:09;1016.1;;;3.4;67.6
54439;BME280;40347;53.848;27.498;2023-03-01T03:26:31;1016.1;;;3.1;68.4
54439;BME280;40347;53.848;27.498;2023-03-01T03:31:37;1016.2;;;3.3;68.4
54439;BME280;40347;53.848;27.498;2023-03-01T03:36:22;1016.1;;;3.5;67.9
54439;BME280;40347;53.848;27.498;2023-03-01T03:41:27;1016.1;;;3.5;67.3
54439;BME280;40347;53.848;27.498;2023-03-01T03:46:09;1016.2;;;3.3;67.4
54439;BME280;40347;53.848;27.498;2023-03-01T03:51:09;1016.2;;;3.6;67.3
54439;BME280;40347;53.848;27.498;2023-03-01T03:56:15;1016.3;;;3.7;66.7
54439;BME280;40347;53.848;27.498;2023-03-01T04:01:09;1016.2;;;3.6;66.4
54439;BME280;40347;53.848;27.498;2023-03-01T04:06:09;1016.3;;;3.5;66.6
54439;BME280;40347;53.848;27.498;2023-03-01T04:11:09;1016.3;;;3.2;66.9
54439;BME280;40347;53.848;27.498;2023-03-01T04:16:31;1016.3;;;3.2;67.5
54439;BME280;40347;53.848;27.498;2023-03-01T04:21:17;1016.4;;;3.3;67.6
54439;BME280;40347;53.848;27.498;2023-03-01T04:26:27;1016.4;;;3.3;67.5
54439;BME280;40347;53.848;27.498;2023-03-01T04:31:16;1016.4;;;3.1;67.4
54439;BME280;40347;53.848;27.498;2023-03-01T04:36:10;1016.4;;;3;67.8
54439;BME280;40347;53.848;27.498;2023-03-01T04:41:10;1016.4;;;3;67.9
54439;BME280;40347;53.848;27.498;2023-03-01T04:46:11;1016.5;;;3;67.8
54439;BME280;40347;53.848;27.498;2023-03-01T04:51:21;1016.4;;;3.2;67.6
54439;BME280;40347;53.848;27.498;2023-03-01T04:56:15;1016.5;;;3.3;67.2
54439;BME280;40347;53.848;27.498;2023-03-01T05:01:29;1016.5;;;3.4;66.9
54439;BME280;40347;53.848;27.498;2023-03-01T05:06:18;1016.5;;;3.5;67
54439;BME280;40347;53.848;27.498;2023-03-01T05:11:23;1016.6;;;3.5;66.8
54439;BME280;40347;53.848;27.498;2023-03-01T05:16:15;1016.7;;;3.4;67.2
54439;BME280;40347;53.848;27.498;2023-03-01T05:21:10;1016.7;;;3.1;68.2
54439;BME280;40347;53.848;27.498;2023-03-01T05:26:16;1016.9;;;2.9;69.1
54439;BME280;40347;53.848;27.498;2023-03-01T05:31:09;1017;;;2.8;69.6
54439;BME280;40347;53.848;27.498;2023-03-01T05:36:09;1017;;;2.7;70.3
54439;BME280;40347;53.848;27.498;2023-03-01T05:41:13;1017;;;3;69.7
54439;BME280;40347;53.848;27.498;2023-03-01T05:46:09;1017;;;3.3;68.9
54439;BME280;40347;53.848;27.498;2023-03-01T05:51:09;1017;;;3.6;67.9
54439;BME280;40347;53.848;27.498;2023-03-01T05:56:09;1017.1;;;3.8;67.1
54439;BME280;40347;53.848;27.498;2023-03-01T06:01:17;1017.2;;;3.8;66.6
54439;BME280;40347;53.848;27.498;2023-03-01T06:06:09;1017.2;;;3.5;66.8
54439;BME280;40347;53.848;27.498;2023-03-01T06:11:17;1017.4;;;3.5;68.3
54439;BME280;40347;53.848;27.498;2023-03-01T06:16:29;1017.5;;;3.1;71.2
54439;BME280;40347;53.848;27.498;2023-03-01T06:21:23;1017.5;;;1.5;86
54439;BME280;40347;53.848;27.498;2023-03-01T06:26:17;1017.7;;;1.1;89.8
54439;BME280;40347;53.848;27.498;2023-03-01T06:31:55;1017.8;;;1.2;91.6
54439;BME280;40347;53.848;27.498;2023-03-01T06:36:17;1017.8;;;1.7;92.3
54439;BME280;40347;53.848;27.498;2023-03-01T06:41:09;1017.9;;;2.4;92.2
54439;BME280;40347;53.848;27.498;2023-03-01T06:46:23;1018;;;2.8;90.9
54439;BME280;40347;53.848;27.498;2023-03-01T06:51:09;1018;;;2.7;87.5
54439;BME280;40347;53.848;27.498;2023-03-01T06:56:21;1018;;;2.6;88.7
54439;BME280;40347;53.848;27.498;2023-03-01T07:01:09;1018.1;;;2.7;88.5
54439;BME280;40347;53.848;27.498;2023-03-01T07:06:31;1018.1;;;2.6;86.4
54439;BME280;40347;53.848;27.498;2023-03-01T07:11:23;1018.2;;;2.3;81.6
54439;BME280;40347;53.848;27.498;2023-03-01T07:16:09;1018.2;;;2.3;78.8
54439;BME280;40347;53.848;27.498;2023-03-01T07:21:21;1018.2;;;2.5;70.5
54439;BME280;40347;53.848;27.498;2023-03-01T07:26:31;1018.2;;;2.5;65.2
54439;BME280;40347;53.848;27.498;2023-03-01T07:31:09;1018.3;;;2.6;64.9
54439;BME280;40347;53.848;27.498;2023-03-01T07:36:23;1018.4;;;2.7;62.9
54439;BME280;40347;53.848;27.498;2023-03-01T07:41:23;1018.5;;;2.6;61.9
54439;BME280;40347;53.848;27.498;2023-03-01T07:46:31;1018.4;;;2.6;61.7
54439;BME280;40347;53.848;27.498;2023-03-01T07:51:32;1018.5;;;2.8;61.7
54439;BME280;40347;53.848;27.498;2023-03-01T07:56:31;1018.6;;;3.1;60.8
54439;BME280;40347;53.848;27.498;2023-03-01T08:01:10;1018.6;;;3.3;60
54439;BME280;40347;53.848;27.498;2023-03-01T08:06:10;1018.6;;;3.6;60.3
54439;BME280;40347;53.848;27.498;2023-03-01T08:11:31;1018.7;;;3.8;58.8
54439;BME280;40347;53.848;27.498;2023-03-01T08:16:19;1018.7;;;4.1;59.4
54439;BME280;40347;53.848;27.498;2023-03-01T08:21:19;1018.7;;;3.9;57.9
54439;BME280;40347;53.848;27.498;2023-03-01T08:26:10;1018.8;;;4;58.9
54439;BME280;40347;53.848;27.498;2023-03-01T08:31:32;1018.7;;;4.7;59
54439;BME280;40347;53.848;27.498;2023-03-01T08:36:32;1018.7;;;5;56.3
54439;BME280;40347;53.848;27.498;2023-03-01T08:41:09;1018.8;;;4.9;55
54439;BME280;40347;53.848;27.498;2023-03-01T08:46:21;1018.8;;;4.6;55.6
54439;BME280;40347;53.848;27.498;2023-03-01T08:51:10;1018.8;;;4.6;55.3
54439;BME280;40347;53.848;27.498;2023-03-01T08:56:29;1018.8;;;5.1;55.9
54439;BME280;40347;53.848;27.498;2023-03-01T09:01:21;1018.7;;;5.4;53.3
54439;BME280;40347;53.848;27.498;2023-03-01T09:06:31;1018.7;;;5.2;53.7
54439;BME280;40347;53.848;27.498;2023-03-01T09:11:10;1018.8;;;5.1;53.8
54439;BME280;40347;53.848;27.498;2023-03-01T09:16:23;1018.8;;;4.6;53.2
54439;BME280;40347;53.848;27.498;2023-03-01T09:21:31;1018.9;;;4.1;54.4
54439;BME280;40347;53.848;27.498;2023-03-01T09:26:23;1019;;;3.8;55.3
54439;BME280;40347;53.848;27.498;2023-03-01T09:31:20;1018.9;;;3.9;56.1
54439;BME280;40347;53.848;27.498;2023-03-01T09:36:18;1019;;;4.3;55.6
54439;BME280;40347;53.848;27.498;2023-03-01T09:41:26;1019;;;4.5;52.2
54439;BME280;40347;53.848;27.498;2023-03-01T09:46:27;1019;;;4.4;52
54439;BME280;40347;53.848;27.498;2023-03-01T09:51:12;1019;;;4.5;52.7
54439;BME280;40347;53.848;27.498;2023-03-01T09:56:24;1018.9;;;4.7;52.1
54439;BME280;40347;53.848;27.498;2023-03-01T10:01:23;1018.9;;;4.8;52.4
54439;BME280;40347;53.848;27.498;2023-03-01T10:06:11;1018.9;;;5.1;53
54439;BME280;40347;53.848;27.498;2023-03-01T10:11:16;1018.9;;;5.5;51.4
54439;BME280;40347;53.848;27.498;2023-03-01T10:16:37;1018.8;;;5.4;50.2
54439;BME280;40347;53.848;27.498;2023-03-01T10:21:19;1018.9;;;5.3;50.3
54439;BME280;40347;53.848;27.498;2023-03-01T10:26:12;1018.9;;;5.2;48.7
54439;BME280;40347;53.848;27.498;2023-03-01T10:31:22;1018.8;;;5.2;49.5
54439;BME280;40347;53.848;27.498;2023-03-01T10:36:17;1018.8;;;5.3;49.4
54439;BME280;40347;53.848;27.498;2023-03-01T10:41:22;1018.8;;;5.5;49.5
54439;BME280;40347;53.848;27.498;2023-03-01T10:46:23;1018.8;;;5.4;47
54439;BME280;40347;53.848;27.498;2023-03-01T10:51:12;1018.8;;;4.9;46.8
54439;BME280;40347;53.848;27.498;2023-03-01T10:56:21;1018.8;;;4.8;46.9
54439;BME280;40347;53.848;27.498;2023-03-01T11:01:24;1018.7;;;4.6;45.8
54439;BME280;40347;53.848;27.498;2023-03-01T11:06:22;1018.7;;;4.8;47.8
54439;BME280;40347;53.848;27.498;2023-03-01T11:11:32;1018.7;;;5.3;48.7
54439;BME280;40347;53.848;27.498;2023-03-01T11:16:10;1018.6;;;5.9;48.4
54439;BME280;40347;53.848;27.498;2023-03-01T11:21:21;1018.6;;;6.2;47.6
54439;BME280;40347;53.848;27.498;2023-03-01T11:26:17;1018.5;;;6.6;47.5
54439;BME280;40347;53.848;27.498;2023-03-01T11:31:33;1018.5;;;7;47.5
54439;BME280;40347;53.848;27.498;2023-03-01T11:36:13;1018.5;;;7.2;44
54439;BME280;40347;53.848;27.498;2023-03-01T11:41:12;1018.5;;;7.3;44.6
54439;BME280;40347;53.848;27.498;2023-03-01T11:46:29;1018.6;;;7.7;45.1
54439;BME280;40347;53.848;27.498;2023-03-01T11:51:33;1018.5;;;7.5;43.8
54439;BME280;40347;53.848;27.498;2023-03-01T11:56:46;1018.5;;;7.3;45
54439;BME280;40347;53.848;27.498;2023-03-01T12:01:36;1018.5;;;7.1;45.2
54439;BME280;40347;53.848;27.498;2023-03-01T12:06:24;1018.5;;;6.7;44.5
54439;BME280;40347;53.848;27.498;2023-03-01T12:11:12;1018.6;;;6.3;44.4
54439;BME280;40347;53.848;27.498;2023-03-01T12:16:20;1018.5;;;6.1;45.2
54439;BME280;40347;53.848;27.498;2023-03-01T12:21:12;1018.5;;;6.2;45.4
54439;BME280;40347;53.848;27.498;2023-03-01T12:26:32;1018.5;;;6.6;46
54439;BME280;40347;53.848;27.498;2023-03-01T12:31:57;1018.5;;;7.1;45.4
54439;BME280;40347;53.848;27.498;2023-03-01T12:36:26;1018.5;;;7.6;43.9
54439;BME280;40347;53.848;27.498;2023-03-01T12:41:27;1018.4;;;7.7;41.9
54439;BME280;40347;53.848;27.498;2023-03-01T12:46:14;1018.5;;;7.5;42.4
54439;BME280;40347;53.848;27.498;2023-03-01T12:51:11;1018.5;;;7.2;44.3
54439;BME280;40347;53.848;27.498;2023-03-01T12:56:10;1018.4;;;7.1;44.9
54439;BME280;40347;53.848;27.498;2023-03-01T13:01:13;1018.4;;;7;44.6
54439;BME280;40347;53.848;27.498;2023-03-01T13:06:19;1018.4;;;6.5;44.7
54439;BME280;40347;53.848;27.498;2023-03-01T13:11:21;1018.4;;;6.4;45.4
54439;BME280;40347;53.848;27.498;2023-03-01T13:16:41;1018.4;;;6.6;45.1
54439;BME280;40347;53.848;27.498;2023-03-01T13:21:30;1018.4;;;6.7;45.5
54439;BME280;40347;53.848;27.498;2023-03-01T13:26:11;1018.4;;;7;45
54439;BME280;40347;53.848;27.498;2023-03-01T13:48:09;1018.3;;;6.3;45.3
54439;BME280;40347;53.848;27.498;2023-03-01T14:08:22;1018.2;;;6.6;46.1
54439;BME280;40347;53.848;27.498;2023-03-01T14:13:24;1018.1;;;6.6;46.2
54439;BME280;40347;53.848;27.498;2023-03-01T14:18:29;1018.1;;;6.6;45.6
54439;BME280;40347;53.848;27.498;2023-03-01T14:23:58;1018.1;;;6.3;45.1
54439;BME280;40347;53.848;27.498;2023-03-01T14:28:42;1018.1;;;6.1;46.3
54439;BME280;40347;53.848;27.498;2023-03-01T14:33:22;1018;;;6.2;45.9
54439;BME280;40347;53.848;27.498;2023-03-01T14:38:33;1018;;;6;46.1
54439;BME280;40347;53.848;27.498;2023-03-01T14:43:31;1017.9;;;5.9;46.8
54439;BME280;40347;53.848;27.498;2023-03-01T14:48:20;1017.9;;;5.9;47
54439;BME280;40347;53.848;27.498;2023-03-01T14:53:42;1017.9;;;5.9;47.2
54439;BME280;40347;53.848;27.498;2023-03-01T14:58:28;1017.9;;;5.8;47.4
54439;BME280;40347;53.848;27.498;2023-03-01T15:03:24;1017.8;;;5.8;47
54439;BME280;40347;53.848;27.498;2023-03-01T15:08:40;1017.7;;;5.3;46.9
54439;BME280;40347;53.848;27.498;2023-03-01T15:13:21;1017.7;;;5.2;48
54439;BME280;40347;53.848;27.498;2023-03-01T15:18:32;1017.7;;;5.3;47.9
54439;BME280;40347;53.848;27.498;2023-03-01T15:23:28;1017.7;;;5.2;47.4
54439;BME280;40347;53.848;27.498;2023-03-01T15:28:48;1017.7;;;5.1;48
54439;BME280;40347;53.848;27.498;2023-03-01T15:33:27;1017.7;;;5.2;48.1
54439;BME280;40347;53.848;27.498;2023-03-01T15:38:30;1017.7;;;5.2;48.3
54439;BME280;40347;53.848;27.498;2023-03-01T15:43:44;1017.6;;;5.1;48.4
54439;BME280;40347;53.848;27.498;2023-03-01T15:48:20;1017.6;;;5;48.5
54439;BME280;40347;53.848;27.498;2023-03-01T15:53:57;1017.6;;;4.9;48.6
54439;BME280;40347;53.848;27.498;2023-03-01T15:58:21;1017.6;;;4.7;48.6
54439;BME280;40347;53.848;27.498;2023-03-01T16:03:20;1017.6;;;4.7;48.6
54439;BME280;40347;53.848;27.498;2023-03-01T16:08:20;1017.6;;;4.6;48.9
54439;BME280;40347;53.848;27.498;2023-03-01T16:13:20;1017.5;;;4.4;48.9
54439;BME280;40347;53.848;27.498;2023-03-01T16:18:32;1017.6;;;4.4;49.3
54439;BME280;40347;53.848;27.498;2023-03-01T16:23:30;1017.6;;;4.3;49.6
54439;BME280;40347;53.848;27.498;2023-03-01T16:28:20;1017.7;;;4;49.8
54439;BME280;40347;53.848;27.498;2023-03-01T16:33:20;1017.7;;;3.8;50.1
54439;BME280;40347;53.848;27.498;2023-03-01T16:38:28;1017.7;;;3.6;50.5
54439;BME280;40347;53.848;27.498;2023-03-01T16:43:20;1017.7;;;3.4;51
54439;BME280;40347;53.848;27.498;2023-03-01T16:48:30;1017.7;;;3.3;51.3
54439;BME280;40347;53.848;27.498;2023-03-01T16:53:28;1017.7;;;3.3;51.4
54439;BME280;40347;53.848;27.498;2023-03-01T16:58:20;1017.6;;;3.2;51.8
54439;BME280;40347;53.848;27.498;2023-03-01T17:03:32;1017.6;;;3.1;51.9
54439;BME280;40347;53.848;27.498;2023-03-01T17:08:32;1017.6;;;3.1;52.3
54439;BME280;40347;53.848;27.498;2023-03-01T17:13:20;1017.5;;;3.1;52.4
54439;BME280;40347;53.848;27.498;2023-03-01T17:18:32;1017.5;;;3.1;52.5
54439;BME280;40347;53.848;27.498;2023-03-01T17:23:20;1017.5;;;3;52.8
54439;BME280;40347;53.848;27.498;2023-03-01T17:28:28;1017.5;;;2.9;53.2
54439;BME280;40347;53.848;27.498;2023-03-01T17:33:20;1017.5;;;2.8;53.4
54439;BME280;40347;53.848;27.498;2023-03-01T17:38:38;1017.6;;;2.7;53.9
54439;BME280;40347;53.848;27.498;2023-03-01T17:43:20;1017.6;;;2.6;54.8
54439;BME280;40347;53.848;27.498;2023-03-01T17:48:32;1017.7;;;2.6;54.8
54439;BME280;40347;53.848;27.498;2023-03-01T17:53:50;1017.6;;;2.6;54.9
54439;BME280;40347;53.848;27.498;2023-03-01T17:58:44;1017.6;;;2.5;55.5
54439;BME280;40347;53.848;27.498;2023-03-01T18:03:30;1017.5;;;2.4;55.9
54439;BME280;40347;53.848;27.498;2023-03-01T18:08:32;1017.5;;;2.4;56.1
54439;BME280;40347;53.848;27.498;2023-03-01T18:13:20;1017.5;;;2.4;56
54439;BME280;40347;53.848;27.498;2023-03-01T18:18:28;1017.5;;;2.4;56.9
54439;BME280;40347;53.848;27.498;2023-03-01T18:23:20;1017.5;;;2.3;56.7
54439;BME280;40347;53.848;27.498;2023-03-01T18:28:30;1017.5;;;2.4;56.9
54439;BME280;40347;53.848;27.498;2023-03-01T18:33:32;1017.5;;;2.3;57.2
54439;BME280;40347;53.848;27.498;2023-03-01T18:38:20;1017.4;;;2.3;57.7
54439;BME280;40347;53.848;27.498;2023-03-01T18:43:44;1017.3;;;2.2;57.5
54439;BME280;40347;53.848;27.498;2023-03-01T18:48:20;1017.3;;;2.1;57.5
54439;BME280;40347;53.848;27.498;2023-03-01T18:53:38;1017.3;;;2.1;57.8
54439;BME280;40347;53.848;27.498;2023-03-01T18:58:32;1017.3;;;2.1;57.8
54439;BME280;40347;53.848;27.498;2023-03-01T19:03:30;1017.3;;;2.1;58.1
54439;BME280;40347;53.848;27.498;2023-03-01T19:08:20;1017.2;;;2;58.6
54439;BME280;40347;53.848;27.498;2023-03-01T19:13:20;1017.2;;;1.9;59.2
54439;BME280;40347;53.848;27.498;2023-03-01T19:18:38;1017.2;;;1.9;58.9
54439;BME280;40347;53.848;27.498;2023-03-01T19:23:32;1017.2;;;1.9;59
54439;BME280;40347;53.848;27.498;2023-03-01T19:28:20;1017.2;;;1.8;59.1
54439;BME280;40347;53.848;27.498;2023-03-01T19:33:40;1017.3;;;1.9;58.6
54439;BME280;40347;53.848;27.498;2023-03-01T19:38:20;1017.3;;;1.9;58.8
54439;BME280;40347;53.848;27.498;2023-03-01T19:43:20;1017.4;;;1.8;59.7
54439;BME280;40347;53.848;27.498;2023-03-01T19:48:20;1017.4;;;1.7;60
54439;BME280;40347;53.848;27.498;2023-03-01T19:53:42;1017.4;;;1.7;59.8
54439;BME280;40347;53.848;27.498;2023-03-01T19:58:28;1017.3;;;1.8;59.8
54439;BME280;40347;53.848;27.498;2023-03-01T20:03:44;1017.4;;;1.8;59.5
54439;BME280;40347;53.848;27.498;2023-03-01T20:08:20;1017.3;;;1.8;59.7
54439;BME280;40347;53.848;27.498;2023-03-01T20:13:20;1017.4;;;1.7;60.1
54439;BME280;40347;53.848;27.498;2023-03-01T20:18:32;1017.3;;;1.7;60.2
54439;BME280;40347;53.848;27.498;2023-03-01T20:23:40;1017.2;;;1.7;60.9
54439;BME280;40347;53.848;27.498;2023-03-01T20:28:32;1017.3;;;1.7;61.1
54439;BME280;40347;53.848;27.498;2023-03-01T20:33:44;1017.3;;;1.6;62.9
54439;BME280;40347;53.848;27.498;2023-03-01T20:38:32;1017.3;;;1.6;63.5
54439;BME280;40347;53.848;27.498;2023-03-01T20:43:32;1017.4;;;1.6;64
54439;BME280;40347;53.848;27.498;2023-03-01T20:48:28;1017.4;;;1.6;63.8
54439;BME280;40347;53.848;27.498;2023-03-01T20:53:20;1017.4;;;1.5;64.9
54439;BME280;40347;53.848;27.498;2023-03-01T20:58:38;1017.4;;;1.4;65.3
54439;BME280;40347;53.848;27.498;2023-03-01T21:03:30;1017.4;;;1.4;65.4
54439;BME280;40347;53.848;27.498;2023-03-01T21:08:20;1017.4;;;1.5;64.9
54439;BME280;40347;53.848;27.498;2023-03-01T21:13:28;1017.3;;;1.5;65.3
54439;BME280;40347;53.848;27.498;2023-03-01T21:18:20;1017.4;;;1.4;66.2
54439;BME280;40347;53.848;27.498;2023-03-01T21:23:20;1017.3;;;1.4;66.2
54439;BME280;40347;53.848;27.498;2023-03-01T21:28:32;1017.3;;;1.4;66.1
54439;BME280;40347;53.848;27.498;2023-03-01T21:33:20;1017.3;;;1.4;65.6
54439;BME280;40347;53.848;27.498;2023-03-01T21:38:38;1017.2;;;1.4;66
54439;BME280;40347;53.848;27.498;2023-03-01T21:43:20;1017.1;;;1.4;66.1
54439;BME280;40347;53.848;27.498;2023-03-01T21:49:06;1017.3;;;1.4;66.3
54439;BME280;40347;53.848;27.498;2023-03-01T21:53:30;1017.4;;;1.4;66.4
54439;BME280;40347;53.848;27.498;2023-03-01T21:58:20;1017.5;;;1.4;67
54439;BME280;40347;53.848;27.498;2023-03-01T22:03:28;1017.4;;;1.4;67.3
54439;BME280;40347;53.848;27.498;2023-03-01T22:08:20;1017.3;;;1.4;67.1
54439;BME280;40347;53.848;27.498;2023-03-01T22:13:30;1017.4;;;1.3;67.2
54439;BME280;40347;53.848;27.498;2023-03-01T22:18:32;1017.4;;;1.3;66.9
54439;BME280;40347;53.848;27.498;2023-03-01T22:23:44;1017.5;;;1.3;66.9
54439;BME280;40347;53.848;27.498;2023-03-01T22:28:28;1017.5;;;1.3;67.1
54439;BME280;40347;53.848;27.498;2023-03-01T22:33:32;1017.4;;;1.4;66.9
54439;BME280;40347;53.848;27.498;2023-03-01T22:38:42;1017.4;;;1.3;67.8
54439;BME280;40347;53.848;27.498;2023-03-01T22:43:20;1017.3;;;1.4;67.5
54439;BME280;40347;53.848;27.498;2023-03-01T22:48:20;1017.3;;;1.4;67.4
54439;BME280;40347;53.848;27.498;2023-03-01T22:53:40;1017.2;;;1.6;67.3
54439;BME280;40347;53.848;27.498;2023-03-01T22:58:20;1017.2;;;1.8;66.7
54439;BME280;40347;53.848;27.498;2023-03-01T23:03:30;1017.2;;;2;66.3
54439;BME280;40347;53.848;27.498;2023-03-01T23:08:32;1017.2;;;2.1;66.3
54439;BME280;40347;53.848;27.498;2023-03-01T23:13:20;1017.2;;;2.1;66.6
54439;BME280;40347;53.848;27.498;2023-03-01T23:18:28;1017.2;;;2.2;66.4
54439;BME280;40347;53.848;27.498;2023-03-01T23:23:40;1017.1;;;2.3;66
54439;BME280;40347;53.848;27.498;2023-03-01T23:28:42;1017;;;2.4;66.1
54439;BME280;40347;53.848;27.498;2023-03-01T23:33:56;1017;;;2.5;65.7
54439;BME280;40347;53.848;27.498;2023-03-01T23:38:20;1016.8;;;2.4;65.9
54439;BME280;40347;53.848;27.498;2023-03-01T23:43:42;1016.8;;;2.4;65.5
54439;BME280;40347;53.848;27.498;2023-03-01T23:48:20;1016.9;;;2.4;65.6
54439;BME280;40347;53.848;27.498;2023-03-01T23:53:42;1016.9;;;2.4;65.4
54439;BME280;40347;53.848;27.498;2023-03-01T23:58:32;1017;;;2.5;65.5
